sensor_id;sensor_type;location;lat;lon;timestamp;pressure;altitude;pressure_sealevel;temperature;humidity
8101;BME280;4093;53.470;9.832;2023-04-27T00:00:11;101853.00;;;6.54;77.02
8101;BME280;4093;53.470;9.832;2023-04-27T00:02:39;101846.41;;;6.19;77.37
8101;BME280;4093;53.470;9.832;2023-04-27T00:05:09;101857.03;;;6.38;75.80
8101;BME280;4093;53.470;9.832;2023-04-27T00:07:38;101858.63;;;6.33;76.54
8101;BME280;4093;53.470;9.832;2023-04-27T00:10:07;101840.34;;;5.73;78.88
8101;BME280;4093;53.470;9.832;2023-04-27T00:12:35;101844.56;;;6.12;76.63
8101;BME280;4093;53.470;9.832;2023-04-27T00:15:03;101839.59;;;5.77;79.26
8101;BME280;4093;53.470;9.832;2023-04-27T00:17:32;101853.94;;;6.10;77.95
8101;BME280;4093;53.470;9.832;2023-04-27T00:19:59;101852.28;;;6.12;77.58
8101;BME280;4093;53.470;9.832;2023-04-27T00:22:28;101836.53;;;5.53;79.58
8101;BME280;4093;53.470;9.832;2023-04-27T00:24:56;101840.78;;;5.93;77.29
8101;BME280;4093;53.470;9.832;2023-04-27T00:27:24;101847.44;;;5.85;78.31
8101;BME280;4093;53.470;9.832;2023-04-27T00:29:52;101838.44;;;5.63;79.04
8101;BME280;4093;53.470;9.832;2023-04-27T00:32:19;101824.63;;;5.56;78.45
8101;BME280;4093;53.470;9.832;2023-04-27T00:34:47;101852.13;;;6.05;76.47
8101;BME280;4093;53.470;9.832;2023-04-27T00:37:15;101811.09;;;5.23;79.06
8101;BME280;4093;53.470;9.832;2023-04-27T00:39:45;101836.13;;;5.34;79.93
8101;BME280;4093;53.470;9.832;2023-04-27T00:42:13;101834.81;;;5.52;79.37
8101;BME280;4093;53.470;9.832;2023-04-27T00:44:45;101835.00;;;5.61;78.90
8101;BME280;4093;53.470;9.832;2023-04-27T00:47:14;101855.53;;;5.61;80.26
8101;BME280;4093;53.470;9.832;2023-04-27T00:49:43;101858.38;;;5.76;79.06
8101;BME280;4093;53.470;9.832;2023-04-27T00:52:10;101848.16;;;5.79;78.93
8101;BME280;4093;53.470;9.832;2023-04-27T00:54:38;101840.69;;;5.90;77.69
8101;BME280;4093;53.470;9.832;2023-04-27T00:57:07;101843.56;;;5.62;79.73
8101;BME280;4093;53.470;9.832;2023-04-27T00:59:35;101853.09;;;5.69;79.95
8101;BME280;4093;53.470;9.832;2023-04-27T01:02:03;101855.88;;;6.22;79.16
8101;BME280;4093;53.470;9.832;2023-04-27T01:04:31;101850.94;;;6.33;77.03
8101;BME280;4093;53.470;9.832;2023-04-27T01:06:59;101855.25;;;6.35;77.61
8101;BME280;4093;53.470;9.832;2023-04-27T01:09:28;101844.94;;;5.88;78.42
8101;BME280;4093;53.470;9.832;2023-04-27T01:11:56;101864.47;;;5.82;80.31
8101;BME280;4093;53.470;9.832;2023-04-27T01:14:26;101860.03;;;6.15;79.11
8101;BME280;4093;53.470;9.832;2023-04-27T01:16:53;101855.03;;;6.21;78.74
8101;BME280;4093;53.470;9.832;2023-04-27T01:19:21;101800.81;;;6.08;77.88
8101;BME280;4093;53.470;9.832;2023-04-27T01:21:49;101857.28;;;6.53;77.36
8101;BME280;4093;53.470;9.832;2023-04-27T01:24:18;101850.38;;;6.49;77.96
8101;BME280;4093;53.470;9.832;2023-04-27T01:26:46;101859.91;;;6.56;77.68
8101;BME280;4093;53.470;9.832;2023-04-27T01:29:15;101844.41;;;6.03;78.37
8101;BME280;4093;53.470;9.832;2023-04-27T01:31:42;101858.16;;;6.05;79.47
8101;BME280;4093;53.470;9.832;2023-04-27T01:34:10;101860.28;;;6.28;77.76
8101;BME280;4093;53.470;9.832;2023-04-27T01:36:38;101868.09;;;6.34;77.56
8101;BME280;4093;53.470;9.832;2023-04-27T01:39:05;101867.28;;;6.36;77.74
8101;BME280;4093;53.470;9.832;2023-04-27T01:41:36;101856.78;;;6.24;77.67
8101;BME280;4093;53.470;9.832;2023-04-27T01:44:04;101858.69;;;5.92;79.31
8101;BME280;4093;53.470;9.832;2023-04-27T01:46:32;101864.47;;;5.82;80.07
8101;BME280;4093;53.470;9.832;2023-04-27T01:49:00;101873.28;;;5.52;81.43
8101;BME280;4093;53.470;9.832;2023-04-27T01:51:30;101877.38;;;5.85;79.65
8101;BME280;4093;53.470;9.832;2023-04-27T01:54:03;101872.75;;;5.29;81.35
8101;BME280;4093;53.470;9.832;2023-04-27T01:56:32;101881.19;;;5.23;82.61
8101;BME280;4093;53.470;9.832;2023-04-27T01:59:01;101894.00;;;5.63;82.20
8101;BME280;4093;53.470;9.832;2023-04-27T02:01:29;101900.69;;;5.94;80.68
8101;BME280;4093;53.470;9.832;2023-04-27T02:03:57;101898.97;;;5.94;80.08
8101;BME280;4093;53.470;9.832;2023-04-27T02:06:25;101882.63;;;5.89;79.05
8101;BME280;4093;53.470;9.832;2023-04-27T02:08:54;101899.84;;;5.93;79.45
8101;BME280;4093;53.470;9.832;2023-04-27T02:11:21;101910.53;;;6.15;79.66
8101;BME280;4093;53.470;9.832;2023-04-27T02:13:49;101915.06;;;6.30;79.56
8101;BME280;4093;53.470;9.832;2023-04-27T02:16:18;101919.75;;;6.49;79.61
8101;BME280;4093;53.470;9.832;2023-04-27T02:18:46;101910.09;;;6.37;80.39
8101;BME280;4093;53.470;9.832;2023-04-27T02:21:14;101913.19;;;6.66;80.44
8101;BME280;4093;53.470;9.832;2023-04-27T02:23:42;101908.06;;;6.66;80.01
8101;BME280;4093;53.470;9.832;2023-04-27T02:26:15;101913.81;;;6.53;80.29
8101;BME280;4093;53.470;9.832;2023-04-27T02:28:44;101906.06;;;6.52;80.00
8101;BME280;4093;53.470;9.832;2023-04-27T02:31:13;101908.16;;;6.72;78.15
8101;BME280;4093;53.470;9.832;2023-04-27T02:33:42;101902.84;;;5.75;81.15
8101;BME280;4093;53.470;9.832;2023-04-27T02:36:10;101912.75;;;6.42;79.75
8101;BME280;4093;53.470;9.832;2023-04-27T02:38:38;101904.59;;;6.17;80.00
8101;BME280;4093;53.470;9.832;2023-04-27T02:41:06;101897.06;;;5.86;80.71
8101;BME280;4093;53.470;9.832;2023-04-27T02:43:33;101902.13;;;6.23;80.09
8101;BME280;4093;53.470;9.832;2023-04-27T02:46:01;101899.97;;;5.99;79.62
8101;BME280;4093;53.470;9.832;2023-04-27T02:48:29;101912.66;;;6.37;78.85
8101;BME280;4093;53.470;9.832;2023-04-27T02:51:02;101894.22;;;5.72;79.24
8101;BME280;4093;53.470;9.832;2023-04-27T02:53:29;101907.81;;;5.68;80.23
8101;BME280;4093;53.470;9.832;2023-04-27T02:55:57;101898.09;;;5.53;79.90
8101;BME280;4093;53.470;9.832;2023-04-27T02:58:25;101903.00;;;5.44;81.00
8101;BME280;4093;53.470;9.832;2023-04-27T03:00:53;101902.88;;;5.38;81.21
8101;BME280;4093;53.470;9.832;2023-04-27T03:03:21;101913.34;;;5.47;80.32
8101;BME280;4093;53.470;9.832;2023-04-27T03:05:49;101911.66;;;5.87;78.97
8101;BME280;4093;53.470;9.832;2023-04-27T03:08:18;101908.84;;;5.76;79.09
8101;BME280;4093;53.470;9.832;2023-04-27T03:10:45;101891.22;;;5.52;79.48
8101;BME280;4093;53.470;9.832;2023-04-27T03:13:13;101892.28;;;5.62;79.01
8101;BME280;4093;53.470;9.832;2023-04-27T03:15:41;101893.38;;;5.73;78.33
8101;BME280;4093;53.470;9.832;2023-04-27T03:18:09;101887.25;;;5.66;79.40
8101;BME280;4093;53.470;9.832;2023-04-27T03:20:37;101903.81;;;5.82;78.88
8101;BME280;4093;53.470;9.832;2023-04-27T03:23:04;101891.91;;;5.86;78.44
8101;BME280;4093;53.470;9.832;2023-04-27T03:25:33;101903.44;;;6.03;78.26
8101;BME280;4093;53.470;9.832;2023-04-27T03:28:01;101885.59;;;5.70;80.21
8101;BME280;4093;53.470;9.832;2023-04-27T03:30:29;101895.47;;;5.91;80.13
8101;BME280;4093;53.470;9.832;2023-04-27T03:32:57;101895.75;;;6.03;78.79
8101;BME280;4093;53.470;9.832;2023-04-27T03:35:25;101901.06;;;6.12;79.35
8101;BME280;4093;53.470;9.832;2023-04-27T03:37:52;101900.34;;;6.19;79.02
8101;BME280;4093;53.470;9.832;2023-04-27T03:40:21;101900.16;;;6.10;80.65
8101;BME280;4093;53.470;9.832;2023-04-27T03:42:50;101911.34;;;6.14;80.22
8101;BME280;4093;53.470;9.832;2023-04-27T03:45:17;101906.34;;;6.20;80.46
8101;BME280;4093;53.470;9.832;2023-04-27T03:47:47;101899.59;;;6.26;79.65
8101;BME280;4093;53.470;9.832;2023-04-27T03:50:15;101911.69;;;6.31;80.79
8101;BME280;4093;53.470;9.832;2023-04-27T03:52:43;101905.94;;;6.44;79.19
8101;BME280;4093;53.470;9.832;2023-04-27T03:55:10;101910.41;;;6.54;79.57
8101;BME280;4093;53.470;9.832;2023-04-27T03:57:39;101916.34;;;6.50;79.84
8101;BME280;4093;53.470;9.832;2023-04-27T04:00:09;101906.97;;;6.52;79.44
8101;BME280;4093;53.470;9.832;2023-04-27T04:02:38;101904.50;;;6.58;79.79
8101;BME280;4093;53.470;9.832;2023-04-27T04:05:06;101904.75;;;6.73;78.97
8101;BME280;4093;53.470;9.832;2023-04-27T04:07:34;101901.47;;;6.81;79.19
8101;BME280;4093;53.470;9.832;2023-04-27T04:10:02;101900.41;;;6.69;79.15
8101;BME280;4093;53.470;9.832;2023-04-27T04:12:30;101923.28;;;7.06;79.03
8101;BME280;4093;53.470;9.832;2023-04-27T04:14:57;101898.84;;;6.78;78.69
8101;BME280;4093;53.470;9.832;2023-04-27T04:17:26;101900.50;;;6.29;80.80
8101;BME280;4093;53.470;9.832;2023-04-27T04:19:54;101917.59;;;6.73;80.66
8101;BME280;4093;53.470;9.832;2023-04-27T04:22:22;101852.84;;;6.43;78.48
8101;BME280;4093;53.470;9.832;2023-04-27T04:24:49;101896.25;;;6.78;78.14
8101;BME280;4093;53.470;9.832;2023-04-27T04:27:18;101910.44;;;6.57;79.31
8101;BME280;4093;53.470;9.832;2023-04-27T04:29:45;101914.19;;;6.75;78.66
8101;BME280;4093;53.470;9.832;2023-04-27T04:32:13;101916.19;;;6.91;78.35
8101;BME280;4093;53.470;9.832;2023-04-27T04:34:47;101914.47;;;6.90;78.03
8101;BME280;4093;53.470;9.832;2023-04-27T04:37:16;101916.34;;;7.00;77.92
8101;BME280;4093;53.470;9.832;2023-04-27T04:39:44;101915.19;;;6.83;77.94
8101;BME280;4093;53.470;9.832;2023-04-27T04:42:11;101914.63;;;6.99;77.67
8101;BME280;4093;53.470;9.832;2023-04-27T04:44:39;101922.53;;;7.14;76.65
8101;BME280;4093;53.470;9.832;2023-04-27T04:47:07;101922.63;;;7.19;76.20
8101;BME280;4093;53.470;9.832;2023-04-27T04:49:35;101912.31;;;7.16;77.19
8101;BME280;4093;53.470;9.832;2023-04-27T04:52:04;101922.53;;;7.11;77.04
8101;BME280;4093;53.470;9.832;2023-04-27T04:54:32;101931.41;;;7.32;76.17
8101;BME280;4093;53.470;9.832;2023-04-27T04:56:59;101937.50;;;6.85;78.05
8101;BME280;4093;53.470;9.832;2023-04-27T04:59:27;101938.69;;;7.04;77.59
8101;BME280;4093;53.470;9.832;2023-04-27T05:01:57;101937.53;;;7.40;76.34
8101;BME280;4093;53.470;9.832;2023-04-27T05:04:25;101937.66;;;6.94;77.59
8101;BME280;4093;53.470;9.832;2023-04-27T05:06:53;101932.91;;;8.45;74.40
8101;BME280;4093;53.470;9.832;2023-04-27T05:09:22;101913.59;;;10.92;66.21
8101;BME280;4093;53.470;9.832;2023-04-27T05:11:50;101911.97;;;12.88;61.07
8101;BME280;4093;53.470;9.832;2023-04-27T05:14:18;101907.72;;;13.72;55.71
8101;BME280;4093;53.470;9.832;2023-04-27T05:16:45;101902.91;;;15.23;53.96
8101;BME280;4093;53.470;9.832;2023-04-27T05:19:14;101903.75;;;15.72;51.41
8101;BME280;4093;53.470;9.832;2023-04-27T05:21:43;101890.16;;;16.00;49.63
8101;BME280;4093;53.470;9.832;2023-04-27T05:24:11;101902.06;;;16.50;49.58
8101;BME280;4093;53.470;9.832;2023-04-27T05:26:41;101900.91;;;16.62;49.47
8101;BME280;4093;53.470;9.832;2023-04-27T05:29:09;101906.25;;;16.18;48.61
8101;BME280;4093;53.470;9.832;2023-04-27T05:31:37;101898.63;;;16.11;48.89
8101;BME280;4093;53.470;9.832;2023-04-27T05:34:05;101895.66;;;17.33;46.93
8101;BME280;4093;53.470;9.832;2023-04-27T05:36:33;101891.94;;;18.59;44.62
8101;BME280;4093;53.470;9.832;2023-04-27T05:39:01;101896.75;;;16.91;47.13
8101;BME280;4093;53.470;9.832;2023-04-27T05:41:29;101896.25;;;14.54;51.70
8101;BME280;4093;53.470;9.832;2023-04-27T05:43:59;101906.81;;;12.85;55.64
8101;BME280;4093;53.470;9.832;2023-04-27T05:46:26;101916.09;;;11.58;60.62
8101;BME280;4093;53.470;9.832;2023-04-27T05:48:54;101918.72;;;11.40;62.61
8101;BME280;4093;53.470;9.832;2023-04-27T05:51:22;101914.19;;;13.34;57.87
8101;BME280;4093;53.470;9.832;2023-04-27T05:53:51;101911.91;;;15.04;54.21
8101;BME280;4093;53.470;9.832;2023-04-27T05:56:20;101915.81;;;14.20;56.24
8101;BME280;4093;53.470;9.832;2023-04-27T05:58:48;101912.41;;;15.74;51.38
8101;BME280;4093;53.470;9.832;2023-04-27T06:01:17;101910.88;;;16.83;48.79
8101;BME280;4093;53.470;9.832;2023-04-27T06:03:45;101902.38;;;18.33;46.38
8101;BME280;4093;53.470;9.832;2023-04-27T06:06:13;101911.53;;;18.19;46.05
8101;BME280;4093;53.470;9.832;2023-04-27T06:08:41;101912.81;;;16.75;47.68
8101;BME280;4093;53.470;9.832;2023-04-27T06:11:09;101912.47;;;16.13;50.15
8101;BME280;4093;53.470;9.832;2023-04-27T06:13:37;101907.41;;;18.11;46.89
8101;BME280;4093;53.470;9.832;2023-04-27T06:16:05;101903.63;;;20.01;42.86
8101;BME280;4093;53.470;9.832;2023-04-27T06:18:35;101900.47;;;19.68;43.56
8101;BME280;4093;53.470;9.832;2023-04-27T06:21:02;101896.13;;;20.36;43.39
8101;BME280;4093;53.470;9.832;2023-04-27T06:23:30;101895.81;;;21.28;40.69
8101;BME280;4093;53.470;9.832;2023-04-27T06:25:58;101897.00;;;22.18;38.33
8101;BME280;4093;53.470;9.832;2023-04-27T06:28:25;101899.28;;;21.49;40.74
8101;BME280;4093;53.470;9.832;2023-04-27T06:30:53;101885.53;;;21.82;39.55
8101;BME280;4093;53.470;9.832;2023-04-27T06:33:21;101883.91;;;21.79;38.19
8101;BME280;4093;53.470;9.832;2023-04-27T06:35:50;101891.22;;;21.91;38.16
8101;BME280;4093;53.470;9.832;2023-04-27T06:38:17;101884.88;;;22.14;38.15
8101;BME280;4093;53.470;9.832;2023-04-27T06:40:49;101884.66;;;23.42;35.98
8101;BME280;4093;53.470;9.832;2023-04-27T06:43:17;101891.38;;;22.44;37.94
8101;BME280;4093;53.470;9.832;2023-04-27T06:45:45;101894.91;;;22.98;37.82
8101;BME280;4093;53.470;9.832;2023-04-27T06:48:12;101905.63;;;20.62;40.47
8101;BME280;4093;53.470;9.832;2023-04-27T06:50:40;101911.34;;;21.34;39.87
8101;BME280;4093;53.470;9.832;2023-04-27T06:53:09;101894.81;;;22.46;36.80
8101;BME280;4093;53.470;9.832;2023-04-27T06:55:37;101890.00;;;22.36;37.60
8101;BME280;4093;53.470;9.832;2023-04-27T06:58:08;101879.25;;;23.61;35.40
8101;BME280;4093;53.470;9.832;2023-04-27T07:00:36;101874.00;;;22.76;36.66
8101;BME280;4093;53.470;9.832;2023-04-27T07:03:04;101868.84;;;23.25;35.67
8101;BME280;4093;53.470;9.832;2023-04-27T07:05:32;101868.88;;;23.07;35.14
8101;BME280;4093;53.470;9.832;2023-04-27T07:08:00;101872.38;;;23.74;36.19
8101;BME280;4093;53.470;9.832;2023-04-27T07:10:33;101879.97;;;24.12;34.14
8101;BME280;4093;53.470;9.832;2023-04-27T07:13:01;101882.00;;;24.39;34.66
8101;BME280;4093;53.470;9.832;2023-04-27T07:15:29;101893.44;;;23.43;35.76
8101;BME280;4093;53.470;9.832;2023-04-27T07:17:57;101894.13;;;23.80;34.45
8101;BME280;4093;53.470;9.832;2023-04-27T07:20:25;101912.38;;;22.64;36.74
8101;BME280;4093;53.470;9.832;2023-04-27T07:22:53;101916.06;;;24.13;34.46
8101;BME280;4093;53.470;9.832;2023-04-27T07:25:20;101914.75;;;23.89;34.93
8101;BME280;4093;53.470;9.832;2023-04-27T07:27:49;101926.28;;;22.85;35.92
8101;BME280;4093;53.470;9.832;2023-04-27T07:30:17;101928.47;;;23.62;35.33
8101;BME280;4093;53.470;9.832;2023-04-27T07:32:45;101922.75;;;24.35;33.63
8101;BME280;4093;53.470;9.832;2023-04-27T07:35:13;101919.84;;;25.01;33.92
8101;BME280;4093;53.470;9.832;2023-04-27T07:37:41;101928.47;;;23.80;34.45
8101;BME280;4093;53.470;9.832;2023-04-27T07:40:10;101933.56;;;22.44;37.13
8101;BME280;4093;53.470;9.832;2023-04-27T07:42:42;101927.19;;;22.67;36.18
8101;BME280;4093;53.470;9.832;2023-04-27T07:45:11;101938.19;;;23.28;35.30
8101;BME280;4093;53.470;9.832;2023-04-27T07:47:39;101933.91;;;21.60;38.43
8101;BME280;4093;53.470;9.832;2023-04-27T07:50:09;101926.41;;;21.10;39.20
8101;BME280;4093;53.470;9.832;2023-04-27T07:52:38;101957.03;;;19.76;41.09
8101;BME280;4093;53.470;9.832;2023-04-27T07:55:06;101978.16;;;17.11;46.05
8101;BME280;4093;53.470;9.832;2023-04-27T07:57:35;101982.28;;;16.02;48.90
8101;BME280;4093;53.470;9.832;2023-04-27T08:00:03;101976.81;;;15.70;49.71
8101;BME280;4093;53.470;9.832;2023-04-27T08:02:35;101980.88;;;17.41;46.10
8101;BME280;4093;53.470;9.832;2023-04-27T08:05:04;101967.66;;;20.20;41.44
8101;BME280;4093;53.470;9.832;2023-04-27T08:07:33;101954.25;;;20.50;38.66
8101;BME280;4093;53.470;9.832;2023-04-27T08:10:08;101934.00;;;19.84;40.70
8101;BME280;4093;53.470;9.832;2023-04-27T08:12:35;101953.28;;;18.24;42.50
8101;BME280;4093;53.470;9.832;2023-04-27T08:15:04;101954.78;;;17.38;44.16
8101;BME280;4093;53.470;9.832;2023-04-27T08:17:33;101956.78;;;19.34;41.56
8101;BME280;4093;53.470;9.832;2023-04-27T08:20:03;101946.81;;;20.61;38.22
8101;BME280;4093;53.470;9.832;2023-04-27T08:22:32;101933.47;;;19.75;42.07
8101;BME280;4093;53.470;9.832;2023-04-27T08:25:00;101943.13;;;19.24;40.47
8101;BME280;4093;53.470;9.832;2023-04-27T08:27:29;101963.38;;;20.85;40.40
8101;BME280;4093;53.470;9.832;2023-04-27T08:29:57;101946.47;;;21.93;38.39
8101;BME280;4093;53.470;9.832;2023-04-27T08:32:26;101931.13;;;21.22;37.23
8101;BME280;4093;53.470;9.832;2023-04-27T08:34:54;101945.56;;;21.34;37.88
8101;BME280;4093;53.470;9.832;2023-04-27T08:37:23;101940.59;;;20.64;38.85
8101;BME280;4093;53.470;9.832;2023-04-27T08:39:51;101938.78;;;21.88;36.81
8101;BME280;4093;53.470;9.832;2023-04-27T08:42:19;101936.00;;;20.69;39.04
8101;BME280;4093;53.470;9.832;2023-04-27T08:44:47;101947.53;;;22.08;37.31
8101;BME280;4093;53.470;9.832;2023-04-27T08:47:14;101921.75;;;21.95;36.64
8101;BME280;4093;53.470;9.832;2023-04-27T08:49:46;101930.13;;;20.40;37.90
8101;BME280;4093;53.470;9.832;2023-04-27T08:52:15;101918.47;;;19.53;39.47
8101;BME280;4093;53.470;9.832;2023-04-27T08:54:44;101950.81;;;16.50;44.37
8101;BME280;4093;53.470;9.832;2023-04-27T08:57:13;101946.63;;;16.42;44.74
8101;BME280;4093;53.470;9.832;2023-04-27T08:59:42;101952.97;;;16.31;45.11
8101;BME280;4093;53.470;9.832;2023-04-27T09:02:20;101943.88;;;16.49;44.34
8101;BME280;4093;53.470;9.832;2023-04-27T09:04:48;101947.59;;;15.96;45.46
8101;BME280;4093;53.470;9.832;2023-04-27T09:07:17;101955.13;;;16.12;46.32
8101;BME280;4093;53.470;9.832;2023-04-27T09:09:46;101945.78;;;15.55;46.21
8101;BME280;4093;53.470;9.832;2023-04-27T09:12:15;101943.50;;;15.35;46.61
8101;BME280;4093;53.470;9.832;2023-04-27T09:14:54;101957.53;;;16.99;43.74
8101;BME280;4093;53.470;9.832;2023-04-27T09:17:26;101962.03;;;16.55;44.65
8101;BME280;4093;53.470;9.832;2023-04-27T09:20:03;101938.81;;;15.06;45.11
8101;BME280;4093;53.470;9.832;2023-04-27T09:22:41;101969.88;;;16.55;45.89
8101;BME280;4093;53.470;9.832;2023-04-27T09:25:21;101953.91;;;15.86;45.84
8101;BME280;4093;53.470;9.832;2023-04-27T09:27:49;101958.47;;;14.73;48.65
8101;BME280;4093;53.470;9.832;2023-04-27T09:30:17;101956.03;;;15.64;46.85
8101;BME280;4093;53.470;9.832;2023-04-27T09:32:51;101961.38;;;15.57;45.71
8101;BME280;4093;53.470;9.832;2023-04-27T09:35:21;101960.94;;;15.33;46.19
8101;BME280;4093;53.470;9.832;2023-04-27T09:37:50;101941.25;;;14.63;47.44
8101;BME280;4093;53.470;9.832;2023-04-27T09:40:20;101966.56;;;14.51;47.79
8101;BME280;4093;53.470;9.832;2023-04-27T09:42:53;101971.13;;;14.96;47.61
8101;BME280;4093;53.470;9.832;2023-04-27T09:45:22;101972.69;;;15.06;47.98
8101;BME280;4093;53.470;9.832;2023-04-27T09:47:50;101970.19;;;13.65;46.58
8101;BME280;4093;53.470;9.832;2023-04-27T09:50:18;101966.88;;;14.25;46.14
8101;BME280;4093;53.470;9.832;2023-04-27T09:52:47;101967.13;;;14.72;45.75
8101;BME280;4093;53.470;9.832;2023-04-27T09:55:16;101926.75;;;15.00;46.23
8101;BME280;4093;53.470;9.832;2023-04-27T09:57:52;101967.19;;;15.74;47.32
8101;BME280;4093;53.470;9.832;2023-04-27T10:00:32;101964.63;;;16.94;45.33
8101;BME280;4093;53.470;9.832;2023-04-27T10:03:17;101953.31;;;16.15;44.85
8101;BME280;4093;53.470;9.832;2023-04-27T10:08:45;101957.53;;;15.30;45.44
8101;BME280;4093;53.470;9.832;2023-04-27T10:11:13;101966.34;;;16.56;45.41
8101;BME280;4093;53.470;9.832;2023-04-27T10:13:51;101956.84;;;15.66;46.58
8101;BME280;4093;53.470;9.832;2023-04-27T10:16:20;101962.63;;;16.27;46.73
8101;BME280;4093;53.470;9.832;2023-04-27T10:18:52;101971.38;;;16.63;45.10
8101;BME280;4093;53.470;9.832;2023-04-27T10:21:20;101964.47;;;17.34;44.73
8101;BME280;4093;53.470;9.832;2023-04-27T10:23:50;101938.59;;;16.52;43.97
8101;BME280;4093;53.470;9.832;2023-04-27T10:26:21;101968.34;;;15.56;47.08
8101;BME280;4093;53.470;9.832;2023-04-27T10:28:59;101963.34;;;15.44;48.17
8101;BME280;4093;53.470;9.832;2023-04-27T10:31:31;101973.81;;;15.92;47.05
8101;BME280;4093;53.470;9.832;2023-04-27T10:34:06;101969.75;;;16.19;48.61
8101;BME280;4093;53.470;9.832;2023-04-27T10:36:35;101968.38;;;16.41;47.04
8101;BME280;4093;53.470;9.832;2023-04-27T10:39:13;101962.09;;;15.68;47.34
8101;BME280;4093;53.470;9.832;2023-04-27T10:41:49;101975.47;;;16.36;47.12
8101;BME280;4093;53.470;9.832;2023-04-27T10:44:24;101975.31;;;16.02;48.55
8101;BME280;4093;53.470;9.832;2023-04-27T10:46:55;101978.88;;;16.40;47.44
8101;BME280;4093;53.470;9.832;2023-04-27T10:49:23;101964.59;;;15.72;45.98
8101;BME280;4093;53.470;9.832;2023-04-27T10:51:51;101976.09;;;15.11;48.92
8101;BME280;4093;53.470;9.832;2023-04-27T10:54:18;101973.56;;;16.03;47.70
8101;BME280;4093;53.470;9.832;2023-04-27T10:56:46;101957.84;;;15.10;48.39
8101;BME280;4093;53.470;9.832;2023-04-27T10:59:14;101958.59;;;14.62;50.19
8101;BME280;4093;53.470;9.832;2023-04-27T11:01:47;101971.88;;;15.02;51.04
8101;BME280;4093;53.470;9.832;2023-04-27T11:04:15;101973.50;;;14.49;51.98
8101;BME280;4093;53.470;9.832;2023-04-27T11:06:44;101971.44;;;14.74;50.85
8101;BME280;4093;53.470;9.832;2023-04-27T11:09:12;101972.44;;;15.21;49.33
8101;BME280;4093;53.470;9.832;2023-04-27T11:11:44;101983.88;;;15.64;49.07
8101;BME280;4093;53.470;9.832;2023-04-27T11:14:15;101982.34;;;15.99;47.74
8101;BME280;4093;53.470;9.832;2023-04-27T11:16:47;101979.03;;;15.42;49.01
8101;BME280;4093;53.470;9.832;2023-04-27T11:19:16;101964.94;;;15.51;47.99
8101;BME280;4093;53.470;9.832;2023-04-27T11:21:43;101961.59;;;14.33;50.02
8101;BME280;4093;53.470;9.832;2023-04-27T11:24:11;101976.63;;;14.76;49.92
8101;BME280;4093;53.470;9.832;2023-04-27T11:26:41;101972.94;;;14.91;49.61
8101;BME280;4093;53.470;9.832;2023-04-27T11:29:09;101979.25;;;15.30;48.54
8101;BME280;4093;53.470;9.832;2023-04-27T11:31:40;101981.41;;;16.01;47.31
8101;BME280;4093;53.470;9.832;2023-04-27T11:34:14;101964.91;;;15.54;47.37
8101;BME280;4093;53.470;9.832;2023-04-27T11:36:42;101957.34;;;15.40;47.44
8101;BME280;4093;53.470;9.832;2023-04-27T11:39:15;101962.44;;;15.46;48.42
8101;BME280;4093;53.470;9.832;2023-04-27T11:41:44;101979.88;;;16.34;48.10
8101;BME280;4093;53.470;9.832;2023-04-27T11:44:12;101965.25;;;15.82;47.44
8101;BME280;4093;53.470;9.832;2023-04-27T11:46:43;101961.97;;;15.74;48.48
8101;BME280;4093;53.470;9.832;2023-04-27T11:49:12;101971.69;;;16.11;49.11
8101;BME280;4093;53.470;9.832;2023-04-27T11:51:41;101961.13;;;15.73;48.91
8101;BME280;4093;53.470;9.832;2023-04-27T11:54:10;101926.16;;;15.34;48.64
8101;BME280;4093;53.470;9.832;2023-04-27T11:56:40;101952.41;;;15.25;49.34
8101;BME280;4093;53.470;9.832;2023-04-27T11:59:17;101977.09;;;16.02;48.32
8101;BME280;4093;53.470;9.832;2023-04-27T12:01:46;101960.84;;;15.39;50.28
8101;BME280;4093;53.470;9.832;2023-04-27T12:04:15;101970.06;;;16.04;48.51
8101;BME280;4093;53.470;9.832;2023-04-27T12:06:43;101982.72;;;16.22;48.68
8101;BME280;4093;53.470;9.832;2023-04-27T12:09:11;101961.66;;;15.41;49.32
8101;BME280;4093;53.470;9.832;2023-04-27T12:11:38;101975.75;;;15.81;49.88
8101;BME280;4093;53.470;9.832;2023-04-27T12:14:06;101967.56;;;15.98;48.92
8101;BME280;4093;53.470;9.832;2023-04-27T12:16:34;101975.34;;;16.01;48.72
8101;BME280;4093;53.470;9.832;2023-04-27T12:19:02;101976.78;;;16.15;48.71
8101;BME280;4093;53.470;9.832;2023-04-27T12:21:32;101971.25;;;15.89;48.13
8101;BME280;4093;53.470;9.832;2023-04-27T12:24:00;101971.47;;;16.20;47.14
8101;BME280;4093;53.470;9.832;2023-04-27T12:26:27;101960.88;;;15.84;47.58
8101;BME280;4093;53.470;9.832;2023-04-27T12:28:55;101963.00;;;15.64;47.53
8101;BME280;4093;53.470;9.832;2023-04-27T12:31:23;101961.75;;;15.35;48.08
8101;BME280;4093;53.470;9.832;2023-04-27T12:33:53;101975.97;;;15.70;48.97
8101;BME280;4093;53.470;9.832;2023-04-27T12:36:21;101985.22;;;15.86;48.36
8101;BME280;4093;53.470;9.832;2023-04-27T12:38:50;101976.19;;;16.03;47.02
8101;BME280;4093;53.470;9.832;2023-04-27T12:41:18;101986.13;;;16.27;47.04
8101;BME280;4093;53.470;9.832;2023-04-27T12:43:45;101976.19;;;16.01;48.01
8101;BME280;4093;53.470;9.832;2023-04-27T12:46:14;101966.69;;;15.50;47.35
8101;BME280;4093;53.470;9.832;2023-04-27T12:48:43;101977.03;;;15.06;49.91
8101;BME280;4093;53.470;9.832;2023-04-27T12:51:11;101976.06;;;15.62;49.43
8101;BME280;4093;53.470;9.832;2023-04-27T12:53:40;101975.38;;;15.53;48.58
8101;BME280;4093;53.470;9.832;2023-04-27T12:56:09;101985.59;;;15.63;48.93
8101;BME280;4093;53.470;9.832;2023-04-27T12:58:36;101983.19;;;15.51;48.69
8101;BME280;4093;53.470;9.832;2023-04-27T13:01:05;101967.66;;;14.94;49.25
8101;BME280;4093;53.470;9.832;2023-04-27T13:03:39;101989.22;;;15.03;50.87
8101;BME280;4093;53.470;9.832;2023-04-27T13:06:07;101968.44;;;15.00;50.17
8101;BME280;4093;53.470;9.832;2023-04-27T13:08:36;101985.50;;;15.20;49.95
8101;BME280;4093;53.470;9.832;2023-04-27T13:11:04;101983.16;;;15.03;49.07
8101;BME280;4093;53.470;9.832;2023-04-27T13:13:33;101986.38;;;14.62;49.96
8101;BME280;4093;53.470;9.832;2023-04-27T13:16:01;102001.78;;;14.77;49.99
8101;BME280;4093;53.470;9.832;2023-04-27T13:18:29;101997.69;;;14.59;48.88
8101;BME280;4093;53.470;9.832;2023-04-27T13:21:01;102002.84;;;15.21;48.55
8101;BME280;4093;53.470;9.832;2023-04-27T13:23:29;101991.81;;;15.03;48.91
8101;BME280;4093;53.470;9.832;2023-04-27T13:25:57;102001.34;;;15.08;49.36